sensor_id;sensor_type;location;lat;lon;timestamp;P1;durP1;ratioP1;P2;durP2;ratioP2
37655;SDS011;23498;50.958;3.124;2022-11-27T00:00:39;15.55;;;7.00;;
37655;SDS011;23498;50.958;3.124;2022-11-27T00:03:05;16.83;;;6.57;;
37655;SDS011;23498;50.958;3.124;2022-11-27T00:05:31;17.55;;;7.00;;
37655;SDS011;23498;50.958;3.124;2022-11-27T00:07:57;14.52;;;6.90;;
37655;SDS011;23498;50.958;3.124;2022-11-27T00:10:23;12.95;;;7.18;;
37655;SDS011;23498;50.958;3.124;2022-11-27T00:12:49;14.80;;;6.47;;
37655;SDS011;23498;50.958;3.124;2022-11-27T00:15:15;19.58;;;7.53;;
37655;SDS011;23498;50.958;3.124;2022-11-27T00:17:42;17.10;;;6.68;;
37655;SDS011;23498;50.958;3.124;2022-11-27T00:20:08;14.27;;;6.30;;
37655;SDS011;23498;50.958;3.124;2022-11-27T00:22:34;15.27;;;6.13;;
37655;SDS011;23498;50.958;3.124;2022-11-27T00:25:00;13.25;;;6.88;;
37655;SDS011;23498;50.958;3.124;2022-11-27T00:27:26;17.40;;;6.85;;
37655;SDS011;23498;50.958;3.124;2022-11-27T00:29:52;15.50;;;7.07;;
37655;SDS011;23498;50.958;3.124;2022-11-27T00:32:18;14.75;;;6.90;;
37655;SDS011;23498;50.958;3.124;2022-11-27T00:34:44;13.13;;;6.85;;
37655;SDS011;23498;50.958;3.124;2022-11-27T00:37:10;13.45;;;6.45;;
37655;SDS011;23498;50.958;3.124;2022-11-27T00:39:38;16.92;;;6.78;;
37655;SDS011;23498;50.958;3.124;2022-11-27T00:42:04;16.90;;;6.35;;
37655;SDS011;23498;50.958;3.124;2022-11-27T00:44:30;14.20;;;6.97;;
37655;SDS011;23498;50.958;3.124;2022-11-27T00:46:56;15.05;;;6.88;;
37655;SDS011;23498;50.958;3.124;2022-11-27T00:49:22;11.85;;;6.78;;
37655;SDS011;23498;50.958;3.124;2022-11-27T00:51:48;14.40;;;6.65;;
37655;SDS011;23498;50.958;3.124;2022-11-27T00:54:14;12.00;;;6.40;;
37655;SDS011;23498;50.958;3.124;2022-11-27T00:56:40;13.70;;;7.05;;
37655;SDS011;23498;50.958;3.124;2022-11-27T00:59:06;14.48;;;6.75;;
37655;SDS011;23498;50.958;3.124;2022-11-27T01:01:33;11.70;;;6.00;;
37655;SDS011;23498;50.958;3.124;2022-11-27T01:04:00;12.82;;;6.60;;
37655;SDS011;23498;50.958;3.124;2022-11-27T01:06:27;15.32;;;6.65;;
37655;SDS011;23498;50.958;3.124;2022-11-27T01:08:53;11.68;;;5.95;;
37655;SDS011;23498;50.958;3.124;2022-11-27T01:11:20;14.88;;;6.55;;
37655;SDS011;23498;50.958;3.124;2022-11-27T01:13:46;13.90;;;6.13;;
37655;SDS011;23498;50.958;3.124;2022-11-27T01:16:15;10.20;;;5.70;;
37655;SDS011;23498;50.958;3.124;2022-11-27T01:18:42;10.70;;;5.80;;
37655;SDS011;23498;50.958;3.124;2022-11-27T01:21:09;10.95;;;6.00;;
37655;SDS011;23498;50.958;3.124;2022-11-27T01:23:35;13.88;;;6.35;;
37655;SDS011;23498;50.958;3.124;2022-11-27T01:26:02;11.15;;;6.10;;
37655;SDS011;23498;50.958;3.124;2022-11-27T01:28:28;12.80;;;6.07;;
37655;SDS011;23498;50.958;3.124;2022-11-27T01:30:54;12.88;;;6.38;;
37655;SDS011;23498;50.958;3.124;2022-11-27T01:33:20;14.20;;;6.30;;
37655;SDS011;23498;50.958;3.124;2022-11-27T01:35:53;11.10;;;6.03;;
37655;SDS011;23498;50.958;3.124;2022-11-27T01:38:20;11.63;;;6.30;;
37655;SDS011;23498;50.958;3.124;2022-11-27T01:40:46;15.10;;;6.28;;
37655;SDS011;23498;50.958;3.124;2022-11-27T01:43:15;12.25;;;6.22;;
37655;SDS011;23498;50.958;3.124;2022-11-27T01:45:41;11.73;;;6.38;;
37655;SDS011;23498;50.958;3.124;2022-11-27T01:48:08;15.40;;;6.50;;
37655;SDS011;23498;50.958;3.124;2022-11-27T01:50:36;11.68;;;6.20;;
37655;SDS011;23498;50.958;3.124;2022-11-27T01:53:10;15.00;;;6.85;;
37655;SDS011;23498;50.958;3.124;2022-11-27T01:55:39;11.60;;;5.65;;
37655;SDS011;23498;50.958;3.124;2022-11-27T01:58:12;11.55;;;5.68;;
37655;SDS011;23498;50.958;3.124;2022-11-27T02:00:39;12.55;;;6.55;;
37655;SDS011;23498;50.958;3.124;2022-11-27T02:03:05;14.63;;;6.90;;
37655;SDS011;23498;50.958;3.124;2022-11-27T02:05:31;14.77;;;5.90;;
37655;SDS011;23498;50.958;3.124;2022-11-27T02:07:58;13.20;;;6.20;;
37655;SDS011;23498;50.958;3.124;2022-11-27T02:10:32;15.40;;;7.43;;
37655;SDS011;23498;50.958;3.124;2022-11-27T02:13:03;11.57;;;5.40;;
37655;SDS011;23498;50.958;3.124;2022-11-27T02:30:59;11.20;;;5.35;;
37655;SDS011;23498;50.958;3.124;2022-11-27T02:33:28;10.60;;;5.57;;
37655;SDS011;23498;50.958;3.124;2022-11-27T02:35:57;9.93;;;4.78;;
37655;SDS011;23498;50.958;3.124;2022-11-27T02:38:25;12.25;;;5.30;;
37655;SDS011;23498;50.958;3.124;2022-11-27T02:43:23;9.68;;;4.78;;
37655;SDS011;23498;50.958;3.124;2022-11-27T02:45:50;11.77;;;5.03;;
37655;SDS011;23498;50.958;3.124;2022-11-27T02:48:20;11.32;;;5.88;;
37655;SDS011;23498;50.958;3.124;2022-11-27T02:50:48;17.17;;;5.47;;
37655;SDS011;23498;50.958;3.124;2022-11-27T02:53:27;13.20;;;4.90;;
37655;SDS011;23498;50.958;3.124;2022-11-27T02:55:54;13.02;;;5.53;;
37655;SDS011;23498;50.958;3.124;2022-11-27T02:58:21;10.85;;;5.43;;
37655;SDS011;23498;50.958;3.124;2022-11-27T03:00:47;11.57;;;4.97;;
37655;SDS011;23498;50.958;3.124;2022-11-27T03:03:16;13.40;;;5.65;;
37655;SDS011;23498;50.958;3.124;2022-11-27T03:05:43;15.68;;;5.38;;
37655;SDS011;23498;50.958;3.124;2022-11-27T03:08:24;14.07;;;5.55;;
37655;SDS011;23498;50.958;3.124;2022-11-27T03:10:55;12.27;;;5.57;;
37655;SDS011;23498;50.958;3.124;2022-11-27T03:13:23;12.43;;;5.80;;
37655;SDS011;23498;50.958;3.124;2022-11-27T03:19:20;14.73;;;5.78;;
37655;SDS011;23498;50.958;3.124;2022-11-27T03:23:55;14.38;;;5.20;;
37655;SDS011;23498;50.958;3.124;2022-11-27T03:26:21;9.60;;;4.60;;
37655;SDS011;23498;50.958;3.124;2022-11-27T03:28:48;14.13;;;5.80;;
37655;SDS011;23498;50.958;3.124;2022-11-27T03:31:15;15.77;;;5.38;;
37655;SDS011;23498;50.958;3.124;2022-11-27T03:33:41;10.63;;;5.03;;
37655;SDS011;23498;50.958;3.124;2022-11-27T03:36:12;16.50;;;5.15;;
37655;SDS011;23498;50.958;3.124;2022-11-27T03:38:38;13.27;;;5.22;;
37655;SDS011;23498;50.958;3.124;2022-11-27T03:41:06;14.65;;;5.60;;
37655;SDS011;23498;50.958;3.124;2022-11-27T03:43:36;12.05;;;5.22;;
37655;SDS011;23498;50.958;3.124;2022-11-27T03:46:27;12.57;;;5.20;;
37655;SDS011;23498;50.958;3.124;2022-11-27T03:48:57;15.02;;;4.78;;
37655;SDS011;23498;50.958;3.124;2022-11-27T03:54:03;11.73;;;5.05;;
37655;SDS011;23498;50.958;3.124;2022-11-27T03:56:37;12.25;;;5.03;;
37655;SDS011;23498;50.958;3.124;2022-11-27T03:59:12;15.30;;;5.30;;
37655;SDS011;23498;50.958;3.124;2022-11-27T04:01:39;10.57;;;5.53;;
37655;SDS011;23498;50.958;3.124;2022-11-27T04:04:05;10.63;;;4.88;;
37655;SDS011;23498;50.958;3.124;2022-11-27T04:06:31;11.55;;;5.00;;
37655;SDS011;23498;50.958;3.124;2022-11-27T04:08:57;12.70;;;4.90;;
37655;SDS011;23498;50.958;3.124;2022-11-27T04:11:23;9.32;;;4.72;;
37655;SDS011;23498;50.958;3.124;2022-11-27T04:13:49;11.27;;;4.85;;
37655;SDS011;23498;50.958;3.124;2022-11-27T04:16:18;8.32;;;4.70;;
37655;SDS011;23498;50.958;3.124;2022-11-27T04:18:44;10.88;;;4.75;;
37655;SDS011;23498;50.958;3.124;2022-11-27T04:21:10;13.68;;;5.00;;
37655;SDS011;23498;50.958;3.124;2022-11-27T04:23:36;15.32;;;4.80;;
37655;SDS011;23498;50.958;3.124;2022-11-27T04:26:03;12.70;;;4.97;;
37655;SDS011;23498;50.958;3.124;2022-11-27T04:28:29;13.27;;;5.28;;
37655;SDS011;23498;50.958;3.124;2022-11-27T04:30:55;10.35;;;4.32;;
37655;SDS011;23498;50.958;3.124;2022-11-27T04:33:21;16.25;;;5.75;;
37655;SDS011;23498;50.958;3.124;2022-11-27T04:35:48;9.77;;;4.18;;
37655;SDS011;23498;50.958;3.124;2022-11-27T04:38:14;13.02;;;4.78;;
37655;SDS011;23498;50.958;3.124;2022-11-27T04:40:40;11.80;;;4.97;;
37655;SDS011;23498;50.958;3.124;2022-11-27T04:43:06;9.85;;;4.55;;
37655;SDS011;23498;50.958;3.124;2022-11-27T04:45:32;9.65;;;4.85;;
37655;SDS011;23498;50.958;3.124;2022-11-27T04:47:58;9.70;;;4.57;;
37655;SDS011;23498;50.958;3.124;2022-11-27T04:50:24;12.65;;;5.18;;
37655;SDS011;23498;50.958;3.124;2022-11-27T04:52:50;8.52;;;4.70;;
37655;SDS011;23498;50.958;3.124;2022-11-27T04:55:16;11.30;;;5.15;;
37655;SDS011;23498;50.958;3.124;2022-11-27T04:57:42;12.65;;;5.20;;
37655;SDS011;23498;50.958;3.124;2022-11-27T05:00:08;12.82;;;4.97;;
37655;SDS011;23498;50.958;3.124;2022-11-27T05:02:34;11.82;;;5.55;;
37655;SDS011;23498;50.958;3.124;2022-11-27T05:05:00;12.07;;;5.13;;
37655;SDS011;23498;50.958;3.124;2022-11-27T05:07:26;10.00;;;5.72;;
37655;SDS011;23498;50.958;3.124;2022-11-27T05:09:52;13.45;;;6.22;;
37655;SDS011;23498;50.958;3.124;2022-11-27T05:12:18;14.23;;;6.88;;
37655;SDS011;23498;50.958;3.124;2022-11-27T05:14:44;11.88;;;5.68;;
37655;SDS011;23498;50.958;3.124;2022-11-27T05:17:10;16.20;;;5.63;;
37655;SDS011;23498;50.958;3.124;2022-11-27T05:19:36;11.75;;;6.43;;
37655;SDS011;23498;50.958;3.124;2022-11-27T05:22:02;13.07;;;5.60;;
37655;SDS011;23498;50.958;3.124;2022-11-27T05:24:28;12.20;;;5.53;;
37655;SDS011;23498;50.958;3.124;2022-11-27T05:26:55;10.93;;;5.70;;
37655;SDS011;23498;50.958;3.124;2022-11-27T05:29:21;13.77;;;6.20;;
37655;SDS011;23498;50.958;3.124;2022-11-27T05:31:47;11.18;;;5.22;;
37655;SDS011;23498;50.958;3.124;2022-11-27T05:34:13;12.60;;;4.97;;
37655;SDS011;23498;50.958;3.124;2022-11-27T05:36:40;12.18;;;5.43;;
37655;SDS011;23498;50.958;3.124;2022-11-27T05:39:06;10.85;;;5.68;;
37655;SDS011;23498;50.958;3.124;2022-11-27T05:41:33;12.40;;;5.70;;
37655;SDS011;23498;50.958;3.124;2022-11-27T05:43:59;14.80;;;5.57;;
37655;SDS011;23498;50.958;3.124;2022-11-27T05:46:25;11.57;;;5.50;;
37655;SDS011;23498;50.958;3.124;2022-11-27T05:48:51;9.82;;;5.45;;
37655;SDS011;23498;50.958;3.124;2022-11-27T05:51:17;12.82;;;5.07;;
37655;SDS011;23498;50.958;3.124;2022-11-27T05:53:44;12.60;;;5.68;;
37655;SDS011;23498;50.958;3.124;2022-11-27T05:56:14;11.35;;;5.45;;
37655;SDS011;23498;50.958;3.124;2022-11-27T05:58:41;11.02;;;5.47;;
37655;SDS011;23498;50.958;3.124;2022-11-27T06:01:07;10.50;;;5.28;;
37655;SDS011;23498;50.958;3.124;2022-11-27T06:03:34;11.45;;;5.20;;
37655;SDS011;23498;50.958;3.124;2022-11-27T06:06:07;12.82;;;5.38;;
37655;SDS011;23498;50.958;3.124;2022-11-27T06:08:34;10.80;;;5.07;;
37655;SDS011;23498;50.958;3.124;2022-11-27T06:11:04;11.00;;;5.45;;
37655;SDS011;23498;50.958;3.124;2022-11-27T06:13:30;11.13;;;5.32;;
37655;SDS011;23498;50.958;3.124;2022-11-27T06:15:56;11.50;;;5.28;;
37655;SDS011;23498;50.958;3.124;2022-11-27T06:18:22;13.85;;;5.55;;
37655;SDS011;23498;50.958;3.124;2022-11-27T06:20:48;15.40;;;6.10;;
37655;SDS011;23498;50.958;3.124;2022-11-27T06:23:14;12.48;;;5.78;;
37655;SDS011;23498;50.958;3.124;2022-11-27T06:25:40;8.57;;;4.68;;
37655;SDS011;23498;50.958;3.124;2022-11-27T06:28:06;9.40;;;5.55;;
37655;SDS011;23498;50.958;3.124;2022-11-27T06:30:32;10.98;;;5.03;;
37655;SDS011;23498;50.958;3.124;2022-11-27T06:32:58;12.05;;;5.70;;
37655;SDS011;23498;50.958;3.124;2022-11-27T06:35:24;13.40;;;5.50;;
37655;SDS011;23498;50.958;3.124;2022-11-27T06:37:50;12.40;;;5.38;;
37655;SDS011;23498;50.958;3.124;2022-11-27T06:40:16;12.68;;;4.82;;
37655;SDS011;23498;50.958;3.124;2022-11-27T06:42:42;12.48;;;5.63;;
37655;SDS011;23498;50.958;3.124;2022-11-27T06:45:08;12.88;;;5.28;;
37655;SDS011;23498;50.958;3.124;2022-11-27T06:47:34;12.65;;;5.13;;
37655;SDS011;23498;50.958;3.124;2022-11-27T06:50:00;12.88;;;5.18;;
37655;SDS011;23498;50.958;3.124;2022-11-27T06:52:26;12.30;;;5.35;;
37655;SDS011;23498;50.958;3.124;2022-11-27T06:54:52;12.40;;;5.18;;
37655;SDS011;23498;50.958;3.124;2022-11-27T06:57:18;10.80;;;5.03;;
37655;SDS011;23498;50.958;3.124;2022-11-27T06:59:44;14.90;;;5.53;;
37655;SDS011;23498;50.958;3.124;2022-11-27T07:02:12;11.73;;;5.63;;
37655;SDS011;23498;50.958;3.124;2022-11-27T07:04:39;11.98;;;5.50;;
37655;SDS011;23498;50.958;3.124;2022-11-27T07:07:05;13.80;;;6.32;;
37655;SDS011;23498;50.958;3.124;2022-11-27T07:09:31;14.10;;;6.32;;
37655;SDS011;23498;50.958;3.124;2022-11-27T07:11:57;12.70;;;5.70;;
37655;SDS011;23498;50.958;3.124;2022-11-27T07:14:23;12.45;;;6.28;;
37655;SDS011;23498;50.958;3.124;2022-11-27T07:16:49;14.95;;;6.22;;
37655;SDS011;23498;50.958;3.124;2022-11-27T07:19:18;13.98;;;6.53;;
37655;SDS011;23498;50.958;3.124;2022-11-27T07:21:44;9.40;;;6.32;;
37655;SDS011;23498;50.958;3.124;2022-11-27T07:24:10;10.68;;;6.32;;
37655;SDS011;23498;50.958;3.124;2022-11-27T07:26:36;15.68;;;6.97;;
37655;SDS011;23498;50.958;3.124;2022-11-27T07:29:02;13.43;;;7.40;;
37655;SDS011;23498;50.958;3.124;2022-11-27T07:31:28;14.48;;;7.50;;
37655;SDS011;23498;50.958;3.124;2022-11-27T07:33:55;12.98;;;5.70;;
37655;SDS011;23498;50.958;3.124;2022-11-27T07:36:26;15.25;;;5.75;;
37655;SDS011;23498;50.958;3.124;2022-11-27T07:38:52;13.97;;;7.17;;
37655;SDS011;23498;50.958;3.124;2022-11-27T07:41:18;10.35;;;6.00;;
37655;SDS011;23498;50.958;3.124;2022-11-27T07:43:44;13.40;;;5.53;;
37655;SDS011;23498;50.958;3.124;2022-11-27T07:46:12;11.20;;;6.13;;
37655;SDS011;23498;50.958;3.124;2022-11-27T07:48:38;15.68;;;6.45;;
37655;SDS011;23498;50.958;3.124;2022-11-27T07:51:04;10.50;;;5.38;;
37655;SDS011;23498;50.958;3.124;2022-11-27T07:53:31;15.23;;;6.55;;
37655;SDS011;23498;50.958;3.124;2022-11-27T07:56:00;14.60;;;6.80;;
37655;SDS011;23498;50.958;3.124;2022-11-27T07:58:26;11.73;;;7.07;;
37655;SDS011;23498;50.958;3.124;2022-11-27T08:00:51;13.60;;;6.45;;
37655;SDS011;23498;50.958;3.124;2022-11-27T08:03:17;15.50;;;5.90;;
37655;SDS011;23498;50.958;3.124;2022-11-27T08:05:43;15.15;;;6.75;;
37655;SDS011;23498;50.958;3.124;2022-11-27T08:08:09;12.88;;;6.72;;
37655;SDS011;23498;50.958;3.124;2022-11-27T08:10:36;12.57;;;6.50;;
37655;SDS011;23498;50.958;3.124;2022-11-27T08:13:02;13.18;;;6.80;;
37655;SDS011;23498;50.958;3.124;2022-11-27T08:15:29;10.48;;;5.70;;
37655;SDS011;23498;50.958;3.124;2022-11-27T08:17:55;14.55;;;6.28;;
37655;SDS011;23498;50.958;3.124;2022-11-27T08:20:21;11.30;;;6.05;;
37655;SDS011;23498;50.958;3.124;2022-11-27T08:22:47;13.35;;;6.28;;
37655;SDS011;23498;50.958;3.124;2022-11-27T08:25:13;15.45;;;6.57;;
37655;SDS011;23498;50.958;3.124;2022-11-27T08:27:39;12.80;;;6.35;;
37655;SDS011;23498;50.958;3.124;2022-11-27T08:30:05;14.73;;;6.25;;
37655;SDS011;23498;50.958;3.124;2022-11-27T08:32:32;13.82;;;6.28;;
37655;SDS011;23498;50.958;3.124;2022-11-27T08:34:58;13.05;;;6.45;;
37655;SDS011;23498;50.958;3.124;2022-11-27T08:37:24;13.55;;;5.93;;
37655;SDS011;23498;50.958;3.124;2022-11-27T08:39:50;12.32;;;6.10;;
37655;SDS011;23498;50.958;3.124;2022-11-27T08:42:16;14.00;;;6.50;;
37655;SDS011;23498;50.958;3.124;2022-11-27T08:44:42;11.18;;;6.22;;
37655;SDS011;23498;50.958;3.124;2022-11-27T08:47:08;12.95;;;6.15;;
37655;SDS011;23498;50.958;3.124;2022-11-27T08:49:34;18.52;;;7.63;;
37655;SDS011;23498;50.958;3.124;2022-11-27T08:52:00;16.15;;;7.22;;
37655;SDS011;23498;50.958;3.124;2022-11-27T08:54:26;12.73;;;6.25;;
37655;SDS011;23498;50.958;3.124;2022-11-27T08:56:52;15.77;;;7.68;;
37655;SDS011;23498;50.958;3.124;2022-11-27T08:59:18;27.27;;;12.93;;
37655;SDS011;23498;50.958;3.124;2022-11-27T09:01:44;14.85;;;6.80;;
37655;SDS011;23498;50.958;3.124;2022-11-27T09:04:10;12.18;;;5.82;;
37655;SDS011;23498;50.958;3.124;2022-11-27T09:06:36;14.25;;;6.05;;
37655;SDS011;23498;50.958;3.124;2022-11-27T09:09:04;12.20;;;5.85;;
37655;SDS011;23498;50.958;3.124;2022-11-27T09:11:30;11.18;;;6.18;;
37655;SDS011;23498;50.958;3.124;2022-11-27T09:13:57;12.05;;;6.55;;
37655;SDS011;23498;50.958;3.124;2022-11-27T09:16:23;12.30;;;6.15;;
37655;SDS011;23498;50.958;3.124;2022-11-27T09:18:50;11.75;;;6.88;;
37655;SDS011;23498;50.958;3.124;2022-11-27T09:21:17;13.20;;;6.63;;
37655;SDS011;23498;50.958;3.124;2022-11-27T09:23:43;11.50;;;5.25;;
37655;SDS011;23498;50.958;3.124;2022-11-27T09:26:10;10.73;;;6.18;;
37655;SDS011;23498;50.958;3.124;2022-11-27T09:28:37;14.60;;;6.30;;
37655;SDS011;23498;50.958;3.124;2022-11-27T09:31:04;13.73;;;6.20;;
37655;SDS011;23498;50.958;3.124;2022-11-27T09:33:30;9.70;;;6.35;;
37655;SDS011;23498;50.958;3.124;2022-11-27T09:36:02;12.48;;;6.50;;
37655;SDS011;23498;50.958;3.124;2022-11-27T09:38:28;13.10;;;6.55;;
37655;SDS011;23498;50.958;3.124;2022-11-27T09:40:55;11.48;;;6.00;;
37655;SDS011;23498;50.958;3.124;2022-11-27T09:43:26;12.98;;;6.13;;
37655;SDS011;23498;50.958;3.124;2022-11-27T09:45:54;11.73;;;5.82;;
37655;SDS011;23498;50.958;3.124;2022-11-27T09:48:40;12.25;;;6.38;;
37655;SDS011;23498;50.958;3.124;2022-11-27T09:51:10;12.63;;;6.20;;
37655;SDS011;23498;50.958;3.124;2022-11-27T09:53:43;12.43;;;6.53;;
37655;SDS011;23498;50.958;3.124;2022-11-27T09:56:11;12.35;;;6.35;;
37655;SDS011;23498;50.958;3.124;2022-11-27T09:58:39;11.13;;;6.13;;
37655;SDS011;23498;50.958;3.124;2022-11-27T10:01:10;11.98;;;5.55;;
37655;SDS011;23498;50.958;3.124;2022-11-27T10:03:37;10.32;;;6.45;;
37655;SDS011;23498;50.958;3.124;2022-11-27T10:06:07;10.80;;;6.50;;
37655;SDS011;23498;50.958;3.124;2022-11-27T10:09:01;15.73;;;6.45;;
37655;SDS011;23498;50.958;3.124;2022-11-27T10:11:36;12.60;;;5.70;;
37655;SDS011;23498;50.958;3.124;2022-11-27T10:16:39;10.70;;;6.18;;
37655;SDS011;23498;50.958;3.124;2022-11-27T10:21:48;10.98;;;5.40;;
37655;SDS011;23498;50.958;3.124;2022-11-27T10:27:01;14.73;;;8.05;;
37655;SDS011;23498;50.958;3.124;2022-11-27T10:29:42;12.25;;;6.07;;
37655;SDS011;23498;50.958;3.124;2022-11-27T10:32:12;10.82;;;6.80;;
37655;SDS011;23498;50.958;3.124;2022-11-27T10:34:39;11.68;;;5.68;;
37655;SDS011;23498;50.958;3.124;2022-11-27T10:37:15;11.23;;;6.53;;
37655;SDS011;23498;50.958;3.124;2022-11-27T10:39:45;10.90;;;6.20;;
37655;SDS011;23498;50.958;3.124;2022-11-27T10:42:23;12.30;;;6.15;;
37655;SDS011;23498;50.958;3.124;2022-11-27T10:44:53;12.30;;;6.40;;
37655;SDS011;23498;50.958;3.124;2022-11-27T10:47:21;12.10;;;6.57;;
37655;SDS011;23498;50.958;3.124;2022-11-27T10:49:48;16.88;;;9.05;;
37655;SDS011;23498;50.958;3.124;2022-11-27T10:52:15;13.70;;;6.55;;
37655;SDS011;23498;50.958;3.124;2022-11-27T10:54:42;13.05;;;6.35;;
37655;SDS011;23498;50.958;3.124;2022-11-27T11:02:25;14.27;;;9.65;;
37655;SDS011;23498;50.958;3.124;2022-11-27T11:04:51;11.75;;;7.60;;
37655;SDS011;23498;50.958;3.124;2022-11-27T11:07:24;16.55;;;8.07;;
37655;SDS011;23498;50.958;3.124;2022-11-27T11:09:51;12.43;;;6.57;;
37655;SDS011;23498;50.958;3.124;2022-11-27T11:12:19;16.02;;;8.30;;
37655;SDS011;23498;50.958;3.124;2022-11-27T11:14:53;12.55;;;6.95;;
37655;SDS011;23498;50.958;3.124;2022-11-27T11:17:24;11.55;;;5.85;;
37655;SDS011;23498;50.958;3.124;2022-11-27T11:19:50;12.93;;;7.80;;
37655;SDS011;23498;50.958;3.124;2022-11-27T11:22:16;10.85;;;6.50;;
37655;SDS011;23498;50.958;3.124;2022-11-27T11:24:50;11.70;;;6.60;;
37655;SDS011;23498;50.958;3.124;2022-11-27T11:27:21;11.65;;;7.35;;
37655;SDS011;23498;50.958;3.124;2022-11-27T11:29:50;12.52;;;7.07;;
37655;SDS011;23498;50.958;3.124;2022-11-27T11:32:24;16.40;;;8.68;;
37655;SDS011;23498;50.958;3.124;2022-11-27T11:37:33;16.67;;;7.93;;
37655;SDS011;23498;50.958;3.124;2022-11-27T11:42:35;9.10;;;5.45;;
37655;SDS011;23498;50.958;3.124;2022-11-27T11:47:31;13.35;;;8.13;;
37655;SDS011;23498;50.958;3.124;2022-11-27T11:49:57;12.32;;;7.50;;
37655;SDS011;23498;50.958;3.124;2022-11-27T11:58:05;10.77;;;5.93;;
37655;SDS011;23498;50.958;3.124;2022-11-27T12:01:03;15.80;;;9.30;;
37655;SDS011;23498;50.958;3.124;2022-11-27T12:03:34;11.52;;;7.60;;
37655;SDS011;23498;50.958;3.124;2022-11-27T12:11:28;10.73;;;6.20;;
37655;SDS011;23498;50.958;3.124;2022-11-27T12:16:33;12.50;;;5.93;;
37655;SDS011;23498;50.958;3.124;2022-11-27T12:21:36;10.43;;;5.95;;
37655;SDS011;23498;50.958;3.124;2022-11-27T12:24:12;10.45;;;5.80;;
37655;SDS011;23498;50.958;3.124;2022-11-27T12:27:04;10.80;;;6.82;;
37655;SDS011;23498;50.958;3.124;2022-11-27T12:34:35;10.68;;;5.88;;
37655;SDS011;23498;50.958;3.124;2022-11-27T12:40:23;9.65;;;6.63;;
37655;SDS011;23498;50.958;3.124;2022-11-27T12:47:42;11.18;;;6.43;;
37655;SDS011;23498;50.958;3.124;2022-11-27T12:52:54;13.18;;;7.10;;
37655;SDS011;23498;50.958;3.124;2022-11-27T12:55:23;11.18;;;6.43;;
37655;SDS011;23498;50.958;3.124;2022-11-27T12:58:34;12.05;;;6.47;;
37655;SDS011;23498;50.958;3.124;2022-11-27T13:00:40;13.07;;;7.05;;
37655;SDS011;23498;50.958;3.124;2022-11-27T13:05:46;9.20;;;6.22;;
37655;SDS011;23498;50.958;3.124;2022-11-27T13:08:15;10.77;;;6.40;;
37655;SDS011;23498;50.958;3.124;2022-11-27T13:10:48;9.40;;;6.68;;
37655;SDS011;23498;50.958;3.124;2022-11-27T13:15:56;11.45;;;6.35;;
37655;SDS011;23498;50.958;3.124;2022-11-27T13:18:34;11.15;;;7.00;;
37655;SDS011;23498;50.958;3.124;2022-11-27T13:21:02;10.40;;;6.32;;
37655;SDS011;23498;50.958;3.124;2022-11-27T13:23:29;9.38;;;5.82;;
37655;SDS011;23498;50.958;3.124;2022-11-27T13:25:55;11.05;;;6.65;;
37655;SDS011;23498;50.958;3.124;2022-11-27T13:28:24;11.60;;;6.50;;
37655;SDS011;23498;50.958;3.124;2022-11-27T13:30:51;15.82;;;7.20;;
37655;SDS011;23498;50.958;3.124;2022-11-27T13:33:29;12.88;;;7.47;;
37655;SDS011;23498;50.958;3.124;2022-11-27T13:35:59;11.88;;;7.10;;
37655;SDS011;23498;50.958;3.124;2022-11-27T13:38:27;10.48;;;7.93;;
37655;SDS011;23498;50.958;3.124;2022-11-27T13:40:54;13.82;;;7.80;;
37655;SDS011;23498;50.958;3.124;2022-11-27T13:43:25;12.90;;;8.30;;
37655;SDS011;23498;50.958;3.124;2022-11-27T13:46:40;12.13;;;7.90;;
37655;SDS011;23498;50.958;3.124;2022-11-27T13:48:40;16.15;;;8.00;;
37655;SDS011;23498;50.958;3.124;2022-11-27T13:51:07;14.05;;;8.20;;
37655;SDS011;23498;50.958;3.124;2022-11-27T13:53:35;13.25;;;8.68;;
37655;SDS011;23498;50.958;3.124;2022-11-27T13:56:01;12.38;;;7.95;;
37655;SDS011;23498;50.958;3.124;2022-11-27T13:58:29;13.15;;;8.43;;
37655;SDS011;23498;50.958;3.124;2022-11-27T14:00:55;13.55;;;8.00;;
37655;SDS011;23498;50.958;3.124;2022-11-27T14:03:22;15.15;;;8.02;;
37655;SDS011;23498;50.958;3.124;2022-11-27T14:05:49;15.55;;;7.93;;
37655;SDS011;23498;50.958;3.124;2022-11-27T14:08:25;12.73;;;8.20;;
37655;SDS011;23498;50.958;3.124;2022-11-27T14:13:17;13.65;;;7.68;;
37655;SDS011;23498;50.958;3.124;2022-11-27T14:15:54;17.10;;;7.93;;
37655;SDS011;23498;50.958;3.124;2022-11-27T14:18:22;12.13;;;7.78;;
37655;SDS011;23498;50.958;3.124;2022-11-27T14:20:52;13.65;;;8.07;;
37655;SDS011;23498;50.958;3.124;2022-11-27T14:23:29;13.48;;;8.88;;
37655;SDS011;23498;50.958;3.124;2022-11-27T14:28:37;21.95;;;11.90;;
37655;SDS011;23498;50.958;3.124;2022-11-27T14:31:18;15.10;;;10.57;;
37655;SDS011;23498;50.958;3.124;2022-11-27T14:33:46;18.42;;;8.82;;
37655;SDS011;23498;50.958;3.124;2022-11-27T14:36:26;13.80;;;8.20;;
37655;SDS011;23498;50.958;3.124;2022-11-27T14:38:54;13.40;;;8.90;;
37655;SDS011;23498;50.958;3.124;2022-11-27T14:41:21;13.13;;;8.35;;
37655;SDS011;23498;50.958;3.124;2022-11-27T14:43:47;12.52;;;8.43;;
37655;SDS011;23498;50.958;3.124;2022-11-27T14:46:23;13.30;;;7.40;;
37655;SDS011;23498;50.958;3.124;2022-11-27T14:48:50;12.27;;;7.68;;
37655;SDS011;23498;50.958;3.124;2022-11-27T14:51:23;12.18;;;7.70;;
37655;SDS011;23498;50.958;3.124;2022-11-27T14:53:51;13.73;;;8.25;;
37655;SDS011;23498;50.958;3.124;2022-11-27T14:56:17;18.17;;;10.77;;
37655;SDS011;23498;50.958;3.124;2022-11-27T14:58:46;14.25;;;8.73;;
37655;SDS011;23498;50.958;3.124;2022-11-27T15:01:20;14.13;;;8.40;;
37655;SDS011;23498;50.958;3.124;2022-11-27T15:03:53;15.93;;;8.55;;
37655;SDS011;23498;50.958;3.124;2022-11-27T15:06:19;14.48;;;8.98;;
37655;SDS011;23498;50.958;3.124;2022-11-27T15:08:46;14.60;;;9.85;;
37655;SDS011;23498;50.958;3.124;2022-11-27T15:11:15;13.02;;;8.45;;
37655;SDS011;23498;50.958;3.124;2022-11-27T15:13:42;14.27;;;8.30;;
37655;SDS011;23498;50.958;3.124;2022-11-27T15:16:15;13.23;;;8.35;;
37655;SDS011;23498;50.958;3.124;2022-11-27T15:18:42;12.27;;;8.27;;
37655;SDS011;23498;50.958;3.124;2022-11-27T15:21:15;12.80;;;7.88;;
37655;SDS011;23498;50.958;3.124;2022-11-27T15:23:43;12.20;;;7.78;;
37655;SDS011;23498;50.958;3.124;2022-11-27T15:26:10;12.25;;;8.23;;
37655;SDS011;23498;50.958;3.124;2022-11-27T15:28:52;13.18;;;8.23;;
37655;SDS011;23498;50.958;3.124;2022-11-27T15:31:25;11.77;;;8.32;;
37655;SDS011;23498;50.958;3.124;2022-11-27T15:36:21;15.98;;;8.65;;
37655;SDS011;23498;50.958;3.124;2022-11-27T15:38:47;16.48;;;8.38;;
37655;SDS011;23498;50.958;3.124;2022-11-27T15:41:27;14.02;;;9.40;;
37655;SDS011;23498;50.958;3.124;2022-11-27T15:43:56;13.85;;;8.25;;
37655;SDS011;23498;50.958;3.124;2022-11-27T15:46:23;14.60;;;8.95;;
37655;SDS011;23498;50.958;3.124;2022-11-27T15:48:51;11.23;;;8.07;;
37655;SDS011;23498;50.958;3.124;2022-11-27T15:51:25;15.25;;;7.78;;
37655;SDS011;23498;50.958;3.124;2022-11-27T15:54:21;15.38;;;8.25;;
37655;SDS011;23498;50.958;3.124;2022-11-27T15:56:49;12.88;;;8.13;;
37655;SDS011;23498;50.958;3.124;2022-11-27T15:59:15;13.25;;;7.88;;
37655;SDS011;23498;50.958;3.124;2022-11-27T16:01:44;12.43;;;7.85;;
37655;SDS011;23498;50.958;3.124;2022-11-27T16:04:13;13.57;;;8.02;;
37655;SDS011;23498;50.958;3.124;2022-11-27T16:06:48;12.98;;;7.90;;
37655;SDS011;23498;50.958;3.124;2022-11-27T16:09:21;13.18;;;8.00;;
37655;SDS011;23498;50.958;3.124;2022-11-27T16:11:50;12.77;;;7.82;;
37655;SDS011;23498;50.958;3.124;2022-11-27T16:14:16;15.45;;;9.02;;